Time;durP1;ratioP1;P1;durP2;ratioP2;P2;SDS_P1;SDS_P2;PMS_P1;PMS_P2;Temp;Humidity;BMP_temperature;BMP_pressure;BME280_temperature;BME280_humidity;BME280_pressure;Samples;Min_cycle;Max_cycle;Signal;HPM_P1;HPM_P2
2022/05/14 00:00:24;;;;;;;18.45;5.05;;;13.00;99.90;;;;;;4997245;28;20106;-87
2022/05/14 00:02:51;;;;;;;16.27;5.18;;;13.00;99.90;;;;;;4995492;28;20057;-86
2022/05/14 00:05:21;;;;;;;18.00;5.43;;;13.00;99.90;;;;;;4994754;28;20108;-86
2022/05/14 00:07:47;;;;;;;14.40;4.90;;;13.30;99.90;;;;;;5003708;28;20077;-87
2022/05/14 00:10:14;;;;;;;18.02;4.85;;;13.00;99.90;;;;;;4997156;28;20141;-87
2022/05/14 00:15:25;;;;;;;23.80;5.93;;;13.10;99.90;;;;;;4994626;28;20053;-87
2022/05/14 00:17:51;;;;;;;21.33;5.05;;;12.90;99.90;;;;;;4978401;28;20042;-86
2022/05/14 00:20:17;;;;;;;20.88;4.80;;;12.80;99.90;;;;;;4994252;28;20050;-87
2022/05/14 00:22:43;;;;;;;20.92;4.93;;;12.80;99.90;;;;;;4994713;28;20444;-86
2022/05/14 00:25:09;;;;;;;19.98;5.38;;;12.80;99.90;;;;;;4993275;28;20117;-85
2022/05/14 00:27:44;;;;;;;15.38;5.25;;;12.80;99.90;;;;;;4978282;28;20055;-87
2022/05/14 00:30:13;;;;;;;22.60;6.03;;;12.80;99.90;;;;;;4978480;28;20482;-87
2022/05/14 00:32:40;;;;;;;19.10;6.28;;;12.80;99.90;;;;;;4994204;28;20058;-86
2022/05/14 00:35:07;;;;;;;26.17;6.65;;;13.10;99.90;;;;;;4977805;28;20046;-86
2022/05/14 00:37:33;;;;;;;20.65;6.00;;;12.70;99.90;;;;;;4994075;28;20042;-87
2022/05/14 00:39:59;;;;;;;19.58;6.07;;;12.80;99.90;;;;;;4994402;28;20065;-87
2022/05/14 00:42:25;;;;;;;26.25;7.18;;;13.20;99.90;;;;;;4994733;28;20482;-86
2022/05/14 00:44:52;;;;;;;24.25;6.95;;;12.70;99.90;;;;;;4994383;28;20046;-86
2022/05/14 00:47:18;;;;;;;22.83;7.18;;;12.70;99.90;;;;;;4994026;28;20494;-87
2022/05/14 00:49:45;;;;;;;20.50;6.68;;;13.00;99.90;;;;;;4993903;28;20093;-87
2022/05/14 00:52:18;;;;;;;22.25;6.60;;;12.70;99.90;;;;;;4993995;28;20038;-87
2022/05/14 00:55:07;;;;;;;29.67;7.95;;;12.80;99.90;;;;;;4993703;28;20114;-87
2022/05/14 00:57:40;;;;;;;21.70;6.78;;;12.50;99.90;;;;;;4993436;28;20070;-86
2022/05/14 01:00:10;;;;;;;28.67;7.10;;;12.50;99.90;;;;;;4994081;28;20054;-87
2022/05/14 01:02:37;;;;;;;22.27;7.40;;;12.40;99.90;;;;;;4977263;28;20142;-87
2022/05/14 01:05:05;;;;;;;26.60;7.10;;;12.40;99.90;;;;;;4994470;28;20084;-87
2022/05/14 01:07:32;;;;;;;30.65;6.97;;;12.30;99.90;;;;;;4993898;28;20438;-87
2022/05/14 01:10:01;;;;;;;23.40;7.32;;;12.70;99.90;;;;;;4993622;28;20046;-87
2022/05/14 01:12:29;;;;;;;26.98;7.07;;;12.40;99.90;;;;;;4993957;28;20444;-87
2022/05/14 01:15:05;;;;;;;23.23;7.40;;;12.40;99.90;;;;;;4993507;28;20545;-87
2022/05/14 01:17:31;;;;;;;27.20;7.20;;;12.30;99.90;;;;;;4993914;28;20450;-87
2022/05/14 01:19:56;;;;;;;30.98;7.65;;;12.30;99.90;;;;;;4977034;28;20084;-87
2022/05/14 01:22:43;;;;;;;28.00;7.25;;;12.30;99.90;;;;;;4994462;28;20050;-87
2022/05/14 01:28:18;;;;;;;24.98;6.90;;;12.20;99.90;;;;;;4993167;28;20404;-87
2022/05/14 01:30:58;;;;;;;24.15;6.45;;;12.20;99.90;;;;;;4993315;28;20486;-87
2022/05/14 01:33:24;;;;;;;30.08;7.25;;;12.20;99.90;;;;;;5005053;28;20469;-87
2022/05/14 01:35:50;;;;;;;29.35;7.38;;;12.20;99.90;;;;;;4993256;28;20050;-87
2022/05/14 01:38:17;;;;;;;27.20;7.88;;;12.40;99.90;;;;;;4992754;28;20042;-87
2022/05/14 01:40:43;;;;;;;23.83;6.60;;;12.70;99.90;;;;;;4976999;28;20050;-87
2022/05/14 01:43:10;;;;;;;25.20;7.35;;;12.10;99.90;;;;;;4993114;28;20042;-87
2022/05/14 01:45:35;;;;;;;28.17;7.68;;;12.60;99.90;;;;;;4976939;28;20069;-87
2022/05/14 01:48:01;;;;;;;26.15;7.53;;;12.10;99.90;;;;;;4993381;28;20092;-87
2022/05/14 01:50:27;;;;;;;31.15;7.68;;;12.00;99.90;;;;;;4992938;28;20474;-87
2022/05/14 01:52:53;;;;;;;26.10;7.68;;;12.60;99.90;;;;;;4993259;28;20496;-87
2022/05/14 01:55:19;;;;;;;24.27;7.75;;;12.00;99.90;;;;;;4992987;28;20524;-87
2022/05/14 01:57:44;;;;;;;26.27;7.45;;;12.00;99.90;;;;;;4992901;28;20057;-86
2022/05/14 02:00:13;;;;;;;32.95;7.72;;;11.90;99.90;;;;;;4992869;28;20116;-87
2022/05/14 02:02:38;;;;;;;32.65;8.13;;;11.80;99.90;;;;;;4992820;28;20050;-87
2022/05/14 02:05:04;;;;;;;23.17;7.32;;;11.80;99.90;;;;;;4992859;28;20109;-87
2022/05/14 02:07:30;;;;;;;27.30;8.20;;;11.70;99.90;;;;;;4993188;28;20442;-87
2022/05/14 02:09:56;;;;;;;21.30;7.47;;;11.70;99.90;;;;;;4992854;28;20092;-87
2022/05/14 02:12:22;;;;;;;33.25;8.55;;;11.70;99.90;;;;;;4992741;28;20050;-87
2022/05/14 02:14:47;;;;;;;25.27;7.75;;;11.60;99.90;;;;;;5005595;28;20391;-87
2022/05/14 02:17:13;;;;;;;28.83;7.72;;;11.60;99.90;;;;;;4984704;28;20398;-87
2022/05/14 02:19:39;;;;;;;25.25;7.72;;;11.50;99.90;;;;;;4992798;28;20061;-87
2022/05/14 02:22:05;;;;;;;26.58;7.97;;;11.50;99.90;;;;;;4992881;28;20046;-87
2022/05/14 02:24:36;;;;;;;23.48;7.93;;;11.40;99.90;;;;;;4993181;28;20058;-87
2022/05/14 02:27:03;;;;;;;25.52;8.65;;;11.40;99.90;;;;;;4976486;28;20089;-87
2022/05/14 02:29:50;;;;;;;34.08;8.02;;;11.30;99.90;;;;;;4992684;28;20047;-87
2022/05/14 02:32:14;;;;;;;31.27;8.32;;;11.30;99.90;;;;;;4992685;28;20129;-87
2022/05/14 02:34:40;;;;;;;36.13;9.50;;;11.20;99.90;;;;;;4992503;28;20133;-87
2022/05/14 02:37:05;;;;;;;26.45;8.23;;;11.40;99.90;;;;;;4992861;28;20050;-87
2022/05/14 02:39:31;;;;;;;27.67;8.30;;;11.50;99.90;;;;;;4992589;28;20505;-87
2022/05/14 02:41:56;;;;;;;32.97;8.40;;;11.20;99.90;;;;;;4992551;28;20042;-87
2022/05/14 02:44:22;;;;;;;33.05;8.35;;;11.10;99.90;;;;;;4976453;28;20116;-87
2022/05/14 02:46:48;;;;;;;32.80;8.80;;;11.10;99.90;;;;;;4992876;28;20077;-87
2022/05/14 02:49:13;;;;;;;26.58;8.82;;;11.10;99.90;;;;;;4994259;28;20562;-87
2022/05/14 02:51:39;;;;;;;24.05;8.23;;;11.10;99.90;;;;;;4996179;28;20051;-87
2022/05/14 02:54:05;;;;;;;30.70;8.43;;;11.00;99.90;;;;;;4996119;28;20413;-87
2022/05/14 02:56:30;;;;;;;27.23;8.75;;;10.90;99.90;;;;;;4983459;28;20129;-87
2022/05/14 02:59:08;;;;;;;29.35;8.57;;;10.90;99.90;;;;;;4986524;28;20050;-87
2022/05/14 03:01:36;;;;;;;29.73;9.05;;;11.10;99.90;;;;;;4979959;28;20108;-87
2022/05/14 03:04:02;;;;;;;28.77;8.65;;;10.80;99.90;;;;;;4995533;28;20553;-87
2022/05/14 03:06:28;;;;;;;26.33;9.43;;;11.20;99.90;;;;;;4995773;28;20038;-87
2022/05/14 03:08:54;;;;;;;37.65;10.05;;;11.30;99.90;;;;;;4979521;28;20045;-87
2022/05/14 03:11:20;;;;;;;32.75;9.18;;;10.70;99.90;;;;;;4979830;28;20050;-87
2022/05/14 03:13:46;;;;;;;27.05;9.35;;;11.00;99.90;;;;;;4995832;28;20058;-87
2022/05/14 03:16:12;;;;;;;33.08;9.10;;;11.10;99.90;;;;;;4995513;28;20398;-87
2022/05/14 03:18:38;;;;;;;28.33;8.93;;;11.00;99.90;;;;;;4995903;28;20046;-87
2022/05/14 03:21:04;;;;;;;33.92;9.45;;;10.70;99.90;;;;;;4995475;28;20449;-87
2022/05/14 03:23:29;;;;;;;34.05;10.18;;;10.90;99.90;;;;;;4979360;28;20054;-87
2022/05/14 03:25:55;;;;;;;33.53;9.90;;;10.60;99.90;;;;;;4995719;28;20192;-87
2022/05/14 03:28:21;;;;;;;27.30;9.52;;;10.60;99.90;;;;;;4995520;28;20528;-87
2022/05/14 03:30:47;;;;;;;41.88;11.07;;;10.50;99.90;;;;;;4995414;28;20039;-87
2022/05/14 03:33:13;;;;;;;29.95;10.32;;;11.00;99.90;;;;;;4995607;28;20372;-87
2022/05/14 03:35:39;;;;;;;38.83;9.88;;;10.70;99.90;;;;;;4978893;28;20042;-87
2022/05/14 03:38:04;;;;;;;29.05;9.65;;;10.50;99.90;;;;;;4995200;28;20092;-87
2022/05/14 03:40:30;;;;;;;35.25;10.15;;;10.50;99.90;;;;;;4995168;28;20184;-87
2022/05/14 03:42:55;;;;;;;33.20;9.52;;;10.50;99.90;;;;;;4979080;28;20082;-87
2022/05/14 03:45:21;;;;;;;31.88;9.52;;;10.50;99.90;;;;;;4995257;28;20553;-87
2022/05/14 03:47:47;;;;;;;29.58;10.25;;;10.50;99.90;;;;;;4995487;28;20058;-87
2022/05/14 03:50:13;;;;;;;33.22;10.63;;;10.40;99.90;;;;;;4978711;28;20425;-87
2022/05/14 03:52:38;;;;;;;31.00;10.10;;;10.50;99.90;;;;;;4978395;28;20069;-87
2022/05/14 03:55:04;;;;;;;26.60;9.98;;;10.50;99.90;;;;;;4994980;28;20157;-87
2022/05/14 03:57:30;;;;;;;32.92;10.70;;;10.40;99.90;;;;;;4994958;28;20050;-87
2022/05/14 03:59:56;;;;;;;39.47;10.48;;;10.60;99.90;;;;;;4978477;28;20073;-87
2022/05/14 04:02:23;;;;;;;32.42;10.32;;;10.60;99.90;;;;;;4996553;28;20046;-87
2022/05/14 04:04:49;;;;;;;30.85;8.70;;;10.40;99.90;;;;;;4997912;28;20053;-87
2022/05/14 04:07:15;;;;;;;28.45;9.57;;;10.50;99.90;;;;;;4998298;28;20107;-87
2022/05/14 04:09:40;;;;;;;29.08;9.55;;;10.40;99.90;;;;;;4998079;28;20481;-87
2022/05/14 04:12:06;;;;;;;38.42;10.48;;;10.40;99.90;;;;;;4997937;28;20052;-87
2022/05/14 04:14:32;;;;;;;30.80;9.88;;;10.40;99.90;;;;;;4998502;28;20381;-87
2022/05/14 04:16:58;;;;;;;28.77;9.40;;;10.50;99.90;;;;;;4998132;28;20041;-87
2022/05/14 04:19:24;;;;;;;29.77;9.55;;;10.40;99.90;;;;;;4997638;28;20049;-87
2022/05/14 04:21:50;;;;;;;34.83;10.30;;;10.50;99.90;;;;;;4999790;28;20045;-87
2022/05/14 04:24:15;;;;;;;31.55;9.75;;;10.70;99.90;;;;;;5002754;28;20046;-87
2022/05/14 04:26:41;;;;;;;33.13;11.07;;;10.90;99.90;;;;;;4997742;28;20041;-87
2022/05/14 04:29:08;;;;;;;35.55;10.43;;;10.50;99.90;;;;;;5011564;28;20057;-87
2022/05/14 04:31:34;;;;;;;36.88;9.55;;;11.00;99.90;;;;;;5013319;28;20042;-87
2022/05/14 04:34:00;;;;;;;34.55;9.52;;;10.60;99.90;;;;;;4981638;28;20056;-87
2022/05/14 04:36:26;;;;;;;33.17;10.40;;;11.00;99.90;;;;;;4997580;28;20137;-87
2022/05/14 04:38:51;;;;;;;35.60;10.88;;;10.80;99.90;;;;;;4981629;28;20081;-87
2022/05/14 04:41:18;;;;;;;32.55;10.85;;;11.10;99.90;;;;;;4981424;28;20543;-87
2022/05/14 04:43:43;;;;;;;36.88;10.38;;;10.80;99.90;;;;;;4997526;28;20064;-87
2022/05/14 04:46:09;;;;;;;28.15;9.23;;;11.40;99.90;;;;;;4997278;28;20477;-87
2022/05/14 04:48:37;;;;;;;26.17;9.10;;;11.10;99.90;;;;;;4997172;28;20042;-87
2022/05/14 04:51:03;;;;;;;27.33;8.82;;;11.00;99.90;;;;;;4997227;28;20049;-87
2022/05/14 04:53:29;;;;;;;23.23;8.70;;;11.10;99.90;;;;;;4997113;28;20428;-87
2022/05/14 04:55:55;;;;;;;28.42;8.65;;;11.20;99.90;;;;;;4997005;28;20050;-87
2022/05/14 04:58:21;;;;;;;32.67;8.18;;;11.20;99.90;;;;;;4997171;28;20080;-87
2022/05/14 05:00:47;;;;;;;28.77;8.45;;;11.20;99.90;;;;;;4997215;28;20100;-87
2022/05/14 05:03:19;;;;;;;23.52;9.07;;;11.70;99.90;;;;;;4993311;28;20410;-87
2022/05/14 05:05:57;;;;;;;28.73;8.52;;;11.30;99.90;;;;;;4993449;28;20061;-87
2022/05/14 05:08:24;;;;;;;24.50;7.60;;;11.80;99.90;;;;;;4993564;28;20121;-87
2022/05/14 05:10:50;;;;;;;25.50;8.23;;;11.40;99.90;;;;;;4977177;28;20049;-87
2022/05/14 05:13:28;;;;;;;24.45;8.05;;;11.90;99.90;;;;;;4993082;28;20041;-86
2022/05/14 05:15:54;;;;;;;22.73;7.75;;;11.50;99.90;;;;;;4977574;28;20042;-86
2022/05/14 05:18:20;;;;;;;20.10;8.07;;;11.50;99.90;;;;;;4993531;28;20410;-86
2022/05/14 05:20:49;;;;;;;19.58;7.25;;;11.90;99.90;;;;;;4993309;28;20121;-86
2022/05/14 05:23:18;;;;;;;26.00;7.85;;;11.80;99.90;;;;;;4993277;28;20494;-86
2022/05/14 05:25:44;;;;;;;26.55;7.93;;;11.60;99.90;;;;;;4993372;28;20050;-86
2022/05/14 05:28:10;;;;;;;23.15;7.50;;;11.90;99.90;;;;;;4993347;28;20042;-86
2022/05/14 05:30:36;;;;;;;18.83;7.78;;;11.80;99.90;;;;;;4993672;28;20068;-86
2022/05/14 05:33:02;;;;;;;20.08;7.85;;;11.90;99.90;;;;;;4993358;28;20093;-86
2022/05/14 05:35:28;;;;;;;25.08;8.98;;;11.80;99.90;;;;;;4993396;28;20065;-86
2022/05/14 05:37:54;;;;;;;28.23;8.63;;;11.90;99.90;;;;;;4976922;28;20050;-86
2022/05/14 05:40:19;;;;;;;23.90;7.50;;;12.00;99.90;;;;;;4993499;28;20046;-87
2022/05/14 05:42:46;;;;;;;24.02;8.10;;;12.10;99.90;;;;;;4977095;28;20551;-87
2022/05/14 05:45:14;;;;;;;29.90;8.25;;;12.30;99.90;;;;;;4976955;28;20490;-88
2022/05/14 05:47:40;;;;;;;25.55;7.78;;;12.30;99.90;;;;;;4993157;28;20054;-88
2022/05/14 05:50:07;;;;;;;24.73;8.18;;;12.40;99.90;;;;;;4992972;28;20042;-88
2022/05/14 05:52:32;;;;;;;25.33;8.02;;;12.50;99.90;;;;;;4996622;28;20050;-88
2022/05/14 05:57:43;;;;;;;21.25;7.53;;;12.60;99.90;;;;;;4992999;28;20109;-89
2022/05/14 06:00:23;;;;;;;25.35;7.97;;;12.70;99.90;;;;;;4993267;28;20050;-88
2022/05/14 06:02:49;;;;;;;29.70;8.00;;;12.80;99.90;;;;;;4994003;28;20496;-87
2022/05/14 06:05:16;;;;;;;20.27;6.93;;;13.00;99.90;;;;;;4996040;28;20097;-87
2022/05/14 06:07:42;;;;;;;21.63;7.15;;;13.10;99.90;;;;;;4996069;28;20042;-88
2022/05/14 06:10:11;;;;;;;22.90;7.65;;;13.20;99.90;;;;;;4996401;28;20050;-87
2022/05/14 06:12:38;;;;;;;24.15;6.40;;;13.30;99.90;;;;;;4996445;28;20050;-88
2022/05/14 06:15:09;;;;;;;19.20;6.30;;;13.40;99.90;;;;;;4996088;28;20486;-87
2022/05/14 06:17:35;;;;;;;20.60;5.40;;;13.40;99.90;;;;;;4980115;28;20042;-88
2022/05/14 06:20:01;;;;;;;23.95;5.75;;;13.30;99.90;;;;;;4996076;28;20562;-87
2022/05/14 06:22:27;;;;;;;27.98;5.85;;;13.30;99.90;;;;;;4996764;28;20050;-88
2022/05/14 06:24:52;;;;;;;21.10;5.35;;;13.50;99.90;;;;;;4999946;28;20528;-87
2022/05/14 06:27:19;;;;;;;18.75;4.38;;;13.60;99.90;;;;;;4999736;28;20069;-87
2022/05/14 06:29:46;;;;;;;20.75;5.20;;;13.80;99.90;;;;;;4999979;28;20128;-88
2022/05/14 06:32:11;;;;;;;17.30;4.82;;;14.00;99.90;;;;;;4999794;28;20053;-88
2022/05/14 06:34:37;;;;;;;24.27;5.50;;;14.10;99.90;;;;;;4983431;28;20049;-87
2022/05/14 06:37:03;;;;;;;20.17;4.55;;;14.30;99.90;;;;;;5015748;28;20045;-87
2022/05/14 06:39:28;;;;;;;15.15;4.30;;;14.50;99.90;;;;;;5019205;28;20021;-87
2022/05/14 06:41:54;;;;;;;22.25;4.47;;;14.60;99.90;;;;;;5008682;28;20045;-88
2022/05/14 06:44:20;;;;;;;17.00;4.32;;;15.00;99.90;;;;;;5016615;28;20054;-87
2022/05/14 06:46:46;;;;;;;21.73;4.22;;;14.80;99.90;;;;;;5012032;28;20057;-88
2022/05/14 06:49:12;;;;;;;20.13;4.45;;;14.90;99.90;;;;;;5006005;28;20473;-88
2022/05/14 06:51:38;;;;;;;16.25;4.20;;;15.00;99.90;;;;;;4983286;28;20042;-88
2022/05/14 06:54:08;;;;;;;18.17;3.80;;;15.20;99.90;;;;;;4999389;28;20054;-88
2022/05/14 06:56:39;;;;;;;17.17;4.18;;;15.20;99.90;;;;;;4983302;28;20486;-87
2022/05/14 06:59:05;;;;;;;19.60;4.35;;;15.20;99.90;;;;;;4999775;28;20448;-87
2022/05/14 07:01:31;;;;;;;16.05;4.53;;;15.30;99.90;;;;;;4999420;28;20041;-87
2022/05/14 07:06:46;;;;;;;17.27;4.30;;;15.40;99.90;;;;;;4999104;28;20054;-87
2022/05/14 07:09:24;;;;;;;14.35;4.38;;;15.50;99.90;;;;;;5000102;28;20088;-87
2022/05/14 07:11:53;;;;;;;15.02;4.35;;;15.50;99.90;;;;;;4999373;28;20112;-87
2022/05/14 07:14:20;;;;;;;18.67;5.03;;;15.80;99.90;;;;;;4982672;28;20081;-87
2022/05/14 07:16:48;;;;;;;15.23;4.20;;;15.70;99.90;;;;;;4982809;28;20138;-87
2022/05/14 07:19:14;;;;;;;20.05;4.25;;;15.70;99.90;;;;;;4998868;28;20050;-88
2022/05/14 07:21:42;;;;;;;14.50;4.22;;;15.80;99.90;;;;;;4999102;28;20136;-87
2022/05/14 07:24:10;;;;;;;18.75;4.25;;;16.00;99.90;;;;;;4998733;28;20103;-87
2022/05/14 07:26:38;;;;;;;17.23;4.10;;;16.10;99.90;;;;;;4982805;28;20176;-86
2022/05/14 07:29:06;;;;;;;12.23;3.70;;;16.10;99.90;;;;;;4998591;28;20053;-87
2022/05/14 07:31:33;;;;;;;18.92;4.05;;;16.20;99.90;;;;;;4982889;28;20037;-87
2022/05/14 07:33:58;;;;;;;17.52;3.92;;;16.50;99.90;;;;;;4982192;28;20050;-87
2022/05/14 07:36:26;;;;;;;16.35;3.58;;;16.40;99.90;;;;;;4998486;28;20057;-87
2022/05/14 07:38:59;;;;;;;16.30;4.22;;;16.40;99.90;;;;;;4982528;28;20045;-87
2022/05/14 07:41:25;;;;;;;15.27;3.72;;;16.50;99.90;;;;;;5000820;28;20054;-87
2022/05/14 07:43:53;;;;;;;18.05;3.88;;;16.80;99.90;;;;;;4991224;28;20136;-86
2022/05/14 07:46:26;;;;;;;14.63;3.35;;;16.80;99.90;;;;;;5016116;28;20493;-87
2022/05/14 07:48:54;;;;;;;14.43;3.78;;;16.80;99.90;;;;;;4982097;28;20041;-87
2022/05/14 07:51:20;;;;;;;15.65;3.78;;;16.70;99.90;;;;;;4998522;28;20037;-87
2022/05/14 07:53:46;;;;;;;15.85;4.50;;;16.80;99.90;;;;;;4998137;28;20133;-86
2022/05/14 07:56:12;;;;;;;28.98;4.32;;;16.90;99.90;;;;;;4998303;28;20541;-90
2022/05/14 07:58:39;;;;;;;29.67;4.20;;;17.10;99.90;;;;;;4982151;28;20044;-89
2022/05/14 08:01:05;;;;;;;13.65;3.30;;;17.20;99.90;;;;;;4998203;28;20102;-87
2022/05/14 08:03:31;;;;;;;16.13;3.88;;;17.20;99.90;;;;;;4981395;28;20050;-86
2022/05/14 08:05:57;;;;;;;14.57;3.78;;;17.40;99.90;;;;;;4997900;28;20065;-87
2022/05/14 08:08:23;;;;;;;16.52;4.38;;;17.40;99.90;;;;;;4998192;28;20547;-87
2022/05/14 08:10:49;;;;;;;15.85;4.35;;;17.50;99.90;;;;;;4982274;28;20045;-87
2022/05/14 08:13:17;;;;;;;14.23;3.60;;;17.60;99.90;;;;;;4997797;28;20050;-88
2022/05/14 08:15:44;;;;;;;13.20;3.80;;;17.60;99.90;;;;;;4981902;28;20136;-87
2022/05/14 08:18:10;;;;;;;17.02;3.80;;;17.80;99.90;;;;;;4981497;28;20050;-87
2022/05/14 08:20:38;;;;;;;15.68;3.83;;;18.10;99.90;;;;;;4997499;28;20049;-87
2022/05/14 08:25:50;;;;;;;14.88;3.88;;;18.10;99.90;;;;;;4997577;28;20508;-87
2022/05/14 08:28:16;;;;;;;18.23;4.13;;;18.10;99.90;;;;;;4981363;28;20042;-87
2022/05/14 08:30:41;;;;;;;16.80;4.18;;;18.20;99.90;;;;;;4997619;28;20042;-87
2022/05/14 08:33:07;;;;;;;14.07;3.83;;;18.10;99.90;;;;;;4997618;28;20053;-87
2022/05/14 08:35:33;;;;;;;15.32;3.88;;;18.20;99.90;;;;;;4997271;28;20046;-87
2022/05/14 08:37:59;;;;;;;18.23;4.13;;;18.30;99.90;;;;;;4997363;28;20048;-87
2022/05/14 08:40:33;;;;;;;17.40;4.18;;;18.60;99.90;;;;;;4997187;28;20050;-87
2022/05/14 08:43:11;;;;;;;15.73;3.85;;;18.40;99.90;;;;;;4981204;28;20042;-87
2022/05/14 08:45:38;;;;;;;14.88;4.10;;;18.20;99.90;;;;;;4997014;28;20057;-87
2022/05/14 08:48:17;;;;;;;14.43;4.03;;;18.00;99.90;;;;;;4996681;28;20038;-86
2022/05/14 08:50:49;;;;;;;14.65;3.75;;;18.00;99.90;;;;;;4997311;28;20104;-87
2022/05/14 08:53:15;;;;;;;13.15;3.28;;;17.90;99.90;;;;;;4996962;28;20041;-87
2022/05/14 08:55:57;;;;;;;15.10;3.55;;;17.70;99.90;;;;;;4997065;28;20060;-87
2022/05/14 08:59:02;;;;;;;15.52;3.78;;;18.00;99.90;;;;;;4982566;28;20048;-87
2022/05/14 09:01:32;;;;;;;15.55;4.10;;;18.30;99.90;;;;;;4997397;28;20042;-87
2022/05/14 09:03:58;;;;;;;14.75;3.72;;;18.30;99.90;;;;;;4977709;28;20117;-87
2022/05/14 09:06:24;;;;;;;14.02;3.53;;;18.30;99.90;;;;;;4977374;28;20054;-87
2022/05/14 09:08:50;;;;;;;17.45;3.55;;;18.50;99.90;;;;;;4977760;28;20042;-87
2022/05/14 09:11:21;;;;;;;17.33;3.85;;;18.70;99.90;;;;;;4977457;28;20112;-87
2022/05/14 09:13:51;;;;;;;14.80;4.13;;;18.90;99.90;;;;;;4977321;28;20050;-87
2022/05/14 09:16:28;;;;;;;17.90;3.78;;;19.00;99.90;;;;;;4977410;28;20038;-87
2022/05/14 09:18:55;;;;;;;13.43;3.35;;;19.20;99.90;;;;;;4993506;28;20410;-87
2022/05/14 09:21:29;;;;;;;16.15;3.83;;;19.30;99.90;;;;;;4993404;28;20042;-88
2022/05/14 09:24:01;;;;;;;12.80;3.58;;;19.30;99.90;;;;;;4995524;28;20058;-87
2022/05/14 09:26:34;;;;;;;14.95;3.47;;;19.50;99.90;;;;;;4990763;28;20050;-88
2022/05/14 09:29:18;;;;;;;18.52;3.92;;;19.50;99.90;;;;;;4993504;28;20046;-87
2022/05/14 09:31:58;;;;;;;14.73;4.05;;;19.40;99.90;;;;;;4993339;28;20053;-87
2022/05/14 09:34:24;;;;;;;14.73;4.03;;;19.40;99.90;;;;;;4993341;28;20367;-88
2022/05/14 09:36:51;;;;;;;20.00;4.50;;;19.20;99.90;;;;;;4993289;28;20053;-87
2022/05/14 09:39:22;;;;;;;17.63;3.85;;;19.10;99.90;;;;;;4993142;28;20042;-88
2022/05/14 09:41:53;;;;;;;14.43;3.53;;;19.40;99.90;;;;;;4976932;28;20045;-87
2022/05/14 09:44:24;;;;;;;15.15;4.18;;;19.60;99.90;;;;;;4993119;28;20046;-87
2022/05/14 09:47:03;;;;;;;15.07;3.78;;;19.80;99.90;;;;;;4993498;28;20109;-87
2022/05/14 09:49:28;;;;;;;11.95;3.60;;;20.00;99.90;;;;;;4993371;28;20426;-88
2022/05/14 09:52:05;;;;;;;16.70;3.90;;;19.80;99.90;;;;;;4993122;28;20046;-88
2022/05/14 09:54:45;;;;;;;12.65;3.50;;;20.00;99.90;;;;;;4992856;28;20053;-87
2022/05/14 09:57:26;;;;;;;16.55;4.32;;;20.10;99.90;;;;;;4978095;28;20458;-87
2022/05/14 10:00:07;;;;;;;12.13;3.58;;;20.10;99.90;;;;;;4999559;28;20042;-85
2022/05/14 10:02:52;;;;;;;18.02;3.75;;;20.10;99.90;;;;;;4999804;28;20046;-88
2022/05/14 10:05:53;;;;;;;15.25;3.72;;;20.00;99.90;;;;;;4999357;28;20047;-87
2022/05/14 10:08:44;;;;;;;15.45;3.50;;;20.10;99.90;;;;;;4982654;28;20065;-87
2022/05/14 10:11:26;;;;;;;13.38;3.75;;;20.30;99.90;;;;;;4988866;28;20064;-87
2022/05/14 10:14:01;;;;;;;13.35;3.58;;;20.60;99.90;;;;;;4999245;28;20057;-87
2022/05/14 10:16:43;;;;;;;13.43;3.60;;;20.70;99.90;;;;;;4984590;28;20105;-88
2022/05/14 10:19:34;;;;;;;15.15;3.53;;;20.80;99.90;;;;;;4999178;28;20126;-88
2022/05/14 10:22:04;;;;;;;13.30;3.58;;;21.00;99.90;;;;;;4999895;28;20390;-88
2022/05/14 10:27:38;;;;;;;12.15;3.20;;;21.40;99.90;;;;;;4999647;28;20178;-87
2022/05/14 10:30:21;;;;;;;13.17;3.90;;;21.60;99.90;;;;;;5000177;28;20061;-87
2022/05/14 10:32:54;;;;;;;15.18;3.78;;;21.70;99.90;;;;;;4999576;28;20050;-88
2022/05/14 10:35:41;;;;;;;15.57;3.35;;;22.00;99.90;;;;;;4982833;28;20046;-87
2022/05/14 10:38:16;;;;;;;12.35;3.38;;;22.00;99.90;;;;;;4999817;28;20082;-88
2022/05/14 10:40:51;;;;;;;12.05;3.55;;;22.20;99.90;;;;;;4983361;28;20093;-88
2022/05/14 10:44:01;;;;;;;12.98;3.85;;;22.40;99.90;;;;;;4999755;28;20050;-89
2022/05/14 10:46:30;;;;;;;11.52;3.58;;;22.60;99.90;;;;;;4998914;28;20058;-88
2022/05/14 10:49:05;;;;;;;12.63;3.70;;;22.60;99.90;;;;;;4999645;28;20042;-88
2022/05/14 10:51:36;;;;;;;17.00;4.15;;;22.60;99.90;;;;;;4999329;28;20054;-88
2022/05/14 10:54:02;;;;;;;20.50;4.22;;;22.10;99.90;;;;;;4983258;28;20418;-87
2022/05/14 10:56:35;;;;;;;14.23;3.58;;;21.80;99.90;;;;;;4998997;28;20041;-88
2022/05/14 10:59:10;;;;;;;12.07;3.50;;;21.40;99.90;;;;;;4999130;28;20053;-87
2022/05/14 11:01:42;;;;;;;12.02;3.40;;;21.10;99.90;;;;;;4999476;28;20069;-88
2022/05/14 11:04:31;;;;;;;14.00;3.72;;;21.00;99.90;;;;;;4999013;28;20054;-87
2022/05/14 11:06:58;;;;;;;13.68;3.78;;;21.00;99.90;;;;;;4998927;28;20042;-88
2022/05/14 11:09:47;;;;;;;14.57;3.88;;;20.90;99.90;;;;;;4996967;28;20056;-87
2022/05/14 11:12:32;;;;;;;15.80;4.10;;;20.60;99.90;;;;;;4996255;28;20046;-87
2022/05/14 11:15:00;;;;;;;15.70;3.95;;;20.30;99.90;;;;;;4995954;28;20046;-88
2022/05/14 11:17:38;;;;;;;14.57;3.53;;;20.60;99.90;;;;;;4996222;28;20069;-87
2022/05/14 11:20:04;;;;;;;14.98;3.33;;;20.80;99.90;;;;;;4995532;28;20509;-88
2022/05/14 11:22:38;;;;;;;14.02;3.60;;;20.60;99.90;;;;;;4996067;28;20085;-87
2022/05/14 11:25:25;;;;;;;12.02;3.30;;;20.80;99.90;;;;;;4995603;28;20034;-87
2022/05/14 11:28:05;;;;;;;17.13;3.95;;;20.90;99.90;;;;;;4995371;28;20046;-88
2022/05/14 11:30:44;;;;;;;15.93;3.67;;;20.60;99.90;;;;;;4995399;28;20046;-87
2022/05/14 11:33:19;;;;;;;14.88;3.67;;;20.50;99.90;;;;;;4995605;28;20043;-87
2022/05/14 11:35:46;;;;;;;;;;;20.90;99.90;;;;;;4979646;28;20049;-87
2022/05/14 11:38:42;;;;;;;11.00;3.35;;;21.30;99.90;;;;;;4979495;28;19918;-87
2022/05/14 11:41:12;;;;;;;14.18;3.42;;;21.60;99.90;;;;;;4994061;28;20055;-87
2022/05/14 11:43:39;;;;;;;17.10;4.10;;;21.40;99.90;;;;;;4995229;28;20052;-87
2022/05/14 11:46:27;;;;;;;12.95;3.45;;;21.40;99.90;;;;;;4978974;28;20046;-88
2022/05/14 11:49:01;;;;;;;17.05;4.05;;;21.40;99.90;;;;;;4995170;28;20046;-87
2022/05/14 11:51:47;;;;;;;14.03;4.10;;;21.80;99.90;;;;;;4994858;28;20057;-87
2022/05/14 11:54:20;;;;;;;12.93;3.95;;;22.00;99.40;;;;;;4978763;28;20305;-88
2022/05/14 11:57:09;;;;;;;12.95;3.63;;;22.40;98.20;;;;;;4978856;28;20049;-87
2022/05/14 11:59:57;;;;;;;12.85;4.13;;;22.80;98.10;;;;;;4978856;28;20061;-88
2022/05/14 12:02:47;;;;;;;15.18;3.47;;;23.00;98.40;;;;;;4995651;28;20053;-88
2022/05/14 12:05:33;;;;;;;16.13;3.75;;;22.90;96.90;;;;;;4994649;28;20104;-88
2022/05/14 12:08:36;;;;;;;13.73;3.40;;;22.80;96.30;;;;;;4995000;28;20042;-87
2022/05/14 12:11:18;;;;;;;13.00;3.47;;;23.00;96.10;;;;;;4953413;28;20058;-87
2022/05/14 12:13:55;;;;;;;13.80;3.58;;;23.40;96.40;;;;;;4994475;28;20042;-88
2022/05/14 12:16:33;;;;;;;14.18;3.58;;;23.60;96.10;;;;;;4994631;28;20520;-88
2022/05/14 12:19:01;;;;;;;18.33;3.55;;;23.80;96.10;;;;;;4994424;28;20096;-88
2022/05/14 12:21:27;;;;;;;12.23;3.58;;;23.60;92.80;;;;;;4994304;28;20046;-88
2022/05/14 12:23:53;;;;;;;12.52;3.75;;;23.20;91.20;;;;;;4994391;28;20042;-88
2022/05/14 12:26:33;;;;;;;14.43;3.78;;;23.10;91.20;;;;;;4978328;28;20049;-88
2022/05/14 12:29:15;;;;;;;14.13;3.67;;;22.90;92.90;;;;;;4978175;28;20075;-87
2022/05/14 12:34:34;;;;;;;11.23;3.50;;;22.30;94.20;;;;;;4993944;28;20058;-87
2022/05/14 12:37:02;;;;;;;11.40;3.67;;;22.00;91.60;;;;;;4994329;28;20129;-88
2022/05/14 12:39:31;;;;;;;15.45;3.83;;;22.10;93.70;;;;;;4977776;28;20046;-88
2022/05/14 12:42:01;;;;;;;13.45;3.05;;;22.10;93.50;;;;;;4993902;28;20050;-87
2022/05/14 12:44:31;;;;;;;17.10;4.45;;;22.00;93.10;;;;;;4993976;28;20084;-87
2022/05/14 12:46:59;;;;;;;14.48;3.83;;;21.50;94.10;;;;;;4993993;28;20486;-87
2022/05/14 12:49:29;;;;;;;13.63;3.25;;;21.70;93.40;;;;;;4993796;28;20045;-88
2022/05/14 12:51:58;;;;;;;14.93;3.75;;;21.40;93.80;;;;;;4977750;28;20052;-88
2022/05/14 12:54:27;;;;;;;14.98;3.90;;;21.80;95.60;;;;;;4993932;28;20046;-87
2022/05/14 12:57:05;;;;;;;13.20;3.20;;;22.20;95.80;;;;;;4994118;28;20482;-87
2022/05/14 12:59:31;;;;;;;14.52;3.75;;;22.70;93.70;;;;;;4993787;28;20137;-87
2022/05/14 13:02:14;;;;;;;12.60;3.75;;;23.00;93.50;;;;;;4993898;28;20500;-87
2022/05/14 13:05:18;;;;;;;12.93;3.30;;;22.90;93.40;;;;;;4977200;28;20070;-88
2022/05/14 13:07:47;;;;;;;13.82;3.58;;;22.70;94.20;;;;;;4903336;29;20060;-90
2022/05/14 13:10:16;;;;;;;11.02;3.08;;;23.00;93.10;;;;;;4919048;29;20062;-86